Triathlon du Chemin des Dames 2019

Epreuve sélectionnée:


S - Résultats Scratch

Filtre:

Partants Général Top 5



Recherche:

N° dossard
Nom
Club
S - Classement arrivée
Clt Athlète Nat. Club Temps Sexe Cat Nat #1 Velo #2 CaP
1 1151 PASCAL Adrien EPERNAY TRIATHLON PAYS DE CHAMPAGNE 01:00:49 M (1e) Senior (1e) 00:12:36 (11e) 00:00:50 (28e) 00:28:28 (1e) 00:00:39 (64e) 00:18:18 (2e) Partagez votre performance
2 1325 COTARD Sacha T.O.S TRIATHLON 01:02:00 M (2e) Cadet (1e) 00:11:36 (5e) 00:00:38 (10e) 00:30:46 (5e) 00:00:28 (1e) 00:18:34 (4e) Partagez votre performance
3 1367 CHESNEL Clément REIMS TRIATHLON 01:02:53 M (3e) Cadet (2e) 00:10:47 (2e) 00:00:40 (13e) 00:32:01 (12e) 00:00:34 (28e) 00:18:53 (7e) Partagez votre performance
4 1339 ZUTTER Christopher TRIATHLON CLUB TORCY 01:03:08 M (4e) Senior (2e) 00:12:09 (6e) 00:00:40 (12e) 00:30:32 (3e) 00:00:44 (104e) 00:19:05 (9e) Partagez votre performance
5 1207 PAQUIS Marc REIMS TRIATHLON 01:04:50 M (5e) Senior (3e) 00:13:19 (19e) 00:00:48 (24e) 00:30:59 (6e) 00:00:34 (27e) 00:19:13 (10e) Partagez votre performance
6 1204 LEMERLE Jean REIMS TRIATHLON 01:05:05 M (6e) Cadet (3e) 00:10:48 (3e) 00:00:36 (6e) 00:32:35 (21e) 00:00:38 (57e) 00:20:30 (39e) Partagez votre performance
7 1198 BUSSON Benoit REIMS TRIATHLON 01:05:39 M (7e) Master (1e) 00:13:03 (17e) 00:01:07 (52e) 00:31:32 (8e) 00:00:32 (15e) 00:19:29 (15e) Partagez votre performance
8 1201 BERQUET Arthur REIMS TRIATHLON 01:05:52 M (8e) Cadet (4e) 00:12:22 (7e) 00:00:45 (15e) 00:32:04 (14e) 00:00:34 (26e) 00:20:10 (27e) Partagez votre performance
9 1349 THOMAS Etienne TRIATHLON CLUB TORCY 01:06:24 M (9e) Senior (4e) 00:12:34 (9e) 00:01:27 (110e) 00:31:21 (7e) 00:01:06 (262e) 00:19:58 (22e) Partagez votre performance
10 1205 MINEUR Thomas REIMS TRIATHLON 01:06:29 M (10e) Master (2e) 00:14:24 (45e) 00:00:53 (33e) 00:32:31 (20e) 00:00:30 (6e) 00:18:12 (1e) Partagez votre performance
11 1467 RAUCOURT Hugo 01:07:35 M (11e) Senior (5e) 00:15:03 (64e) 00:00:45 (18e) 00:31:34 (9e) 00:00:34 (25e) 00:19:41 (17e) Partagez votre performance
12 1447 FRIANT David 01:07:52 M (12e) Master (3e) 00:15:09 (72e) 00:01:16 (75e) 00:30:36 (4e) 00:00:38 (54e) 00:20:15 (29e) Partagez votre performance
13 1311 CARLIER Pierre PASTEL TRIATHLON SAINT QUENTIN 01:07:56 M (13e) Cadet (5e) 00:12:36 (10e) 00:01:03 (44e) 00:34:05 (47e) 00:00:32 (20e) 00:19:42 (18e) Partagez votre performance
14 1334 LEBLOND Stephen TRIATHLON CLUB SOISSONS 01:08:40 M (14e) Senior (6e) 00:13:30 (20e) 00:00:57 (38e) 00:32:29 (19e) 00:00:57 (196e) 00:20:50 (47e) Partagez votre performance
15 1150 CHEVILLET Mickael EPERNAY TRIATHLON PAYS DE CHAMPAGNE 01:08:42 M (15e) Senior (7e) 00:14:06 (36e) 00:01:52 (184e) 00:33:45 (42e) 00:00:41 (85e) 00:18:21 (3e) Partagez votre performance
16 1485 EPERNAY TRIATHLON . 01:08:46 M (16e) Relais (1e) 00:12:38 (12e) 00:00:37 (7e) 00:34:05 (46e) 00:00:28 (4e) 00:21:00 (53e) Partagez votre performance
17 1474 DEWEINE Benjamin 01:09:06 M (17e) Senior (8e) 00:15:08 (71e) 00:00:52 (30e) 00:32:48 (25e) 00:00:36 (40e) 00:19:44 (20e) Partagez votre performance
18 1269 LEBLOND Yohane NANTES TRIATHLON 01:09:12 M (18e) Senior (9e) 00:14:57 (59e) 00:01:30 (120e) 00:32:42 (23e) 00:00:40 (70e) 00:19:25 (14e) Partagez votre performance
19 1353 DEWAELE Thomas TRIATHLON CLUB TORCY 01:09:20 M (19e) Master (4e) 00:13:53 (30e) 00:00:54 (36e) 00:32:57 (26e) 00:00:51 (165e) 00:20:46 (45e) Partagez votre performance
20 1169 LEMAIRE Damien NOISY LE GRAND TRIATHLON 01:09:23 M (20e) Junior (1e) 00:14:08 (37e) 00:01:17 (77e) 00:32:44 (24e) 00:00:48 (135e) 00:20:27 (37e) Partagez votre performance
21 1308 LEPOLARD Hugo PASTEL TRIATHLON SAINT QUENTIN 01:09:35 M (21e) Cadet (6e) 00:12:42 (13e) 00:00:47 (23e) 00:34:28 (56e) 00:00:33 (23e) 00:21:07 (58e) Partagez votre performance
22 1312 NATHANAËL Cardon PASTEL TRIATHLON SAINT QUENTIN 01:09:35 M (22e) Cadet (7e) 00:12:57 (16e) 00:01:11 (59e) 00:33:51 (44e) 00:00:37 (45e) 00:21:01 (55e) Partagez votre performance
23 1202 MERLE Renaud REIMS TRIATHLON 01:09:48 M (23e) Master (5e) 00:14:40 (51e) 00:01:18 (79e) 00:32:11 (16e) 00:00:42 (89e) 00:20:58 (50e) Partagez votre performance
24 1341 TERNOIR Julien TRIATHLON CLUB TORCY 01:10:10 M (24e) Senior (10e) 00:13:56 (31e) 00:01:39 (154e) 00:32:26 (18e) 00:00:47 (130e) 00:21:24 (65e) Partagez votre performance
25 1427 PICHENOT Julian Metz triathlon 01:10:27 M (25e) Senior (11e) 00:14:09 (39e) 00:01:27 (111e) 00:32:24 (17e) 00:00:37 (44e) 00:21:52 (80e) Partagez votre performance
26 1193 DA SILVA Matthieu REIMS TRIATHLON 01:10:34 M (26e) Senior (12e) 00:13:37 (25e) 00:01:03 (43e) 00:34:56 (65e) 00:00:51 (160e) 00:20:09 (26e) Partagez votre performance
27 1231 BONNEFOI Nicolas AC CLAYE SOUILLY 01:10:34 M (27e) Senior (13e) 00:12:43 (14e) 00:00:54 (35e) 00:34:38 (60e) 00:00:31 (14e) 00:21:49 (79e) Partagez votre performance
28 1324 COTARD Fabrice T.O.S TRIATHLON 01:10:48 M (28e) Master (6e) 00:14:18 (42e) 00:00:46 (21e) 00:34:12 (48e) 00:00:48 (132e) 00:20:45 (44e) Partagez votre performance
29 1310 LECREUX Mathéo PASTEL TRIATHLON SAINT QUENTIN 01:10:55 M (29e) Cadet (8e) 00:16:51 (152e) 00:00:49 (26e) 00:32:36 (22e) 00:00:40 (74e) 00:20:02 (23e) Partagez votre performance
30 1212 KOWALINSKI Maxime TRIATHLON CLUB DE L`OMOIS 01:11:00 M (30e) Senior (14e) 00:15:46 (104e) 00:00:51 (29e) 00:33:17 (31e) 00:00:40 (67e) 00:20:28 (38e) Partagez votre performance
31 1475 MIRAMON Pierre 01:11:20 M (31e) Senior (15e) 00:15:59 (112e) 00:01:39 (153e) 00:30:29 (2e) 00:00:43 (97e) 00:22:32 (102e) Partagez votre performance
32 1445 TISON Alexis 01:11:26 M (32e) Senior (16e) 00:16:47 (147e) 00:01:33 (132e) 00:32:07 (15e) 00:00:55 (182e) 00:20:06 (24e) Partagez votre performance
33 1275 DELACROIX Jerome 01:11:33 M (33e) Master (7e) 00:16:43 (143e) 00:00:57 (39e) 00:34:28 (57e) 00:00:35 (35e) 00:18:51 (6e) Partagez votre performance
34 1180 GASCON Laurian NOISY LE GRAND TRIATHLON 01:11:43 M (34e) Senior (17e) 00:15:33 (91e) 00:01:15 (71e) 00:34:28 (58e) 00:00:32 (21e) 00:19:57 (21e) Partagez votre performance
35 1333 VERHOIGNE Cédric TRIATHLON CLUB SOISSONS 01:11:48 M (35e) Senior (18e) 00:16:48 (150e) 00:01:28 (114e) 00:33:12 (30e) 00:00:41 (81e) 00:19:41 (16e) Partagez votre performance
36 1283 MARGARIT Didier 01:11:49 M (36e) Master (8e) 00:13:59 (32e) 00:01:12 (62e) 00:34:54 (64e) 00:00:48 (134e) 00:20:58 (51e) Partagez votre performance
37 1277 CHOQUE Nicolas 01:11:50 M (37e) Master (9e) 00:17:54 (190e) 00:00:53 (32e) 00:33:29 (36e) 00:00:35 (37e) 00:19:01 (8e) Partagez votre performance
38 1191 KROL Quentin REIMS TRIATHLON 01:12:00 M (38e) Senior (19e) 00:16:47 (148e) 00:01:05 (48e) 00:34:25 (55e) 00:00:31 (8e) 00:19:14 (11e) Partagez votre performance
39 1278 LECOCQ Pierre 01:12:06 M (39e) Senior (20e) 00:14:48 (53e) 00:01:10 (57e) 00:33:26 (34e) 00:00:51 (163e) 00:21:53 (82e) Partagez votre performance
40 1364 LEFEVRE Sebastien WILD TEAM TRIATHLON 01:12:06 M (40e) Master (10e) 00:15:49 (106e) 00:01:18 (80e) 00:34:22 (54e) 00:00:55 (186e) 00:19:44 (19e) Partagez votre performance
41 1206 LONGUEBRAY Benjamin REIMS TRIATHLON 01:12:11 M (41e) Master (11e) 00:14:29 (46e) 00:01:11 (60e) 00:33:49 (43e) 00:00:55 (190e) 00:21:48 (78e) Partagez votre performance
42 1343 TESTARD Thery TRIATHLON CLUB TORCY 01:12:13 M (42e) Senior (21e) 00:14:01 (33e) 00:01:52 (186e) 00:34:16 (50e) 00:00:50 (154e) 00:21:16 (63e) Partagez votre performance
43 1244 DONDEYNE Maxime CLERMONT TRIATHLON 01:12:24 M (43e) Senior (22e) 00:14:10 (40e) 00:01:10 (56e) 00:34:18 (52e) 00:00:37 (47e) 00:22:11 (94e) Partagez votre performance
44 1317 MARCHAL Hippolyte POIX TRIATHLON 01:12:27 M (44e) Cadet (9e) 00:13:52 (29e) 00:01:15 (73e) 00:35:19 (76e) 00:00:50 (157e) 00:21:12 (61e) Partagez votre performance
45 1241 CHAZARENC Clement CHESSY TRIATHLON VAL D EUROPE 01:12:45 M (45e) Cadet (10e) 00:12:48 (15e) 00:01:30 (118e) 00:33:40 (40e) 00:00:45 (115e) 00:24:03 (155e) Partagez votre performance
46 1412 OGET Stéphane 01:12:48 M (46e) Senior (23e) 00:17:38 (178e) 00:01:43 (163e) 00:31:50 (10e) 00:00:39 (62e) 00:21:01 (56e) Partagez votre performance
47 1213 BAZIN Philippe TRIATHLON CLUB DE L`OMOIS 01:12:54 M (47e) Master (12e) 00:15:44 (101e) 00:01:05 (46e) 00:34:17 (51e) 00:00:43 (98e) 00:21:08 (59e) Partagez votre performance
48 1470 VATTIER Laurent 01:12:59 M (48e) Master (13e) 00:15:30 (89e) 00:01:21 (86e) 00:35:07 (71e) 00:00:39 (58e) 00:20:26 (35e) Partagez votre performance
49 1239 NAUTRE Mickael CHARLEVILLE TRIATHLON ARDENNES 01:13:05 M (49e) Master (14e) 00:15:45 (103e) 00:01:14 (69e) 00:33:19 (32e) 00:00:48 (131e) 00:22:02 (88e) Partagez votre performance
50 1411 SOBOL Benoit 01:13:11 M (50e) Senior (24e) 00:15:43 (99e) 00:01:43 (166e) 00:34:51 (62e) 00:00:47 (125e) 00:20:09 (25e) Partagez votre performance
51 1147 CONVENANCE Olivier CAMBRAI TRIATHLON 01:13:12 M (51e) Master (15e)